Towner, Colorado
Current Conditions -  °F | °C
As of 10:53 AM on Monday 22 Dec 2014 (Local Time) from KLAA Reporting Station
Clear Clear  
Wind Chill: 37°   Ceiling: Unl
Heat Index: 44°   Visibility: 10mi
Dew Point: 25°   Wind: 14mph
Humidity: 47%   Direction: 330°NNW
Pressure: 29.72"   Gusts: NA
Location:  38.4443°N, 102.221°W
Report Text: KLAA 221753Z AUTO 33012KT 10SM CLR 07/M04 A2972 RMK AO2 SLP056 T00671039 10072 20017 58005
Loading
Personal Weather Stations






























Interactive Weather Map New forecast layout! Learn more

10-Day Weather Forecast

Advertisements
Track Severe Weather on mobile